Washington, District of Columbia
Traffic Map
Current Weather Conditions
Washington, District of Columbia
Broken Clouds
Broken Clouds
Feels Like: 22°
Wind Chill: 22° Ceiling: 7500
Heat Index: 22° Visibility: 10mi
Dew Point: 13° Wind: 8mph
Humidity: 59% Direction: 220° (SW)
Pressure: 29.61in Gusts: 0mph
Raw Report DataKDCA 132252Z 22007KT 10SM SCT055 BKN075 BKN090 22/13 A2961 RMK AO2 RAB30E50 SLP026 P0000 T02170133
Traffic Incident Summary
Active as of:
InformationThere was an issue retrieving the traffic information for this location. Please try a different location or try again shortly.
Track Severe Weather on mobile